Time;durP1;ratioP1;P1;durP2;ratioP2;P2;SDS_P1;SDS_P2;PMS_P1;PMS_P2;Temp;Humidity;BMP_temperature;BMP_pressure;BME280_temperature;BME280_humidity;BME280_pressure;Samples;Min_cycle;Max_cycle;Signal;HPM_P1;HPM_P2
2022/04/19 04:07:42;;;;;;;;;;;;;;;6.29;100.00;97899.13;5485257;23;20247;-74
2022/04/19 04:10:13;;;;;;;;;;;;;;;6.30;100.00;97898.75;4889069;29;19946;-73
2022/04/19 04:12:40;;;;;;;;;;;;;;;6.34;100.00;97893.22;4903941;29;19952;-80
2022/04/19 04:15:10;;;;;;;;;;;;;;;6.37;100.00;97889.69;4888862;29;20354;-74
2022/04/19 04:17:37;;;;;;;;;;;;;;;6.38;100.00;97896.88;4884573;29;20271;-73
2022/04/19 04:20:05;;;;;;;;;;;;;;;6.39;100.00;97887.34;4904200;29;19948;-72
2022/04/19 04:22:32;;;;;;;;;;;;;;;6.43;100.00;97896.53;4888642;29;19954;-72
2022/04/19 04:25:00;;;;;;;;;;;;;;;6.44;100.00;97889.78;4903483;29;19958;-72
2022/04/19 04:27:29;;;;;;;;;;;;;;;6.41;100.00;97885.78;4903165;29;19959;-73
2022/04/19 04:29:56;;;;;;;;;;;;;;;6.41;100.00;97887.75;4904130;29;20333;-72
2022/04/19 04:32:23;;;;;;;;;;;;;;;6.41;100.00;97890.53;4888279;29;19949;-73
2022/04/19 04:34:51;;;;;;;;;;;;;;;6.47;100.00;97892.59;4904874;29;19967;-73
2022/04/19 04:37:18;;;;;;;;;;;;;;;6.51;100.00;97889.84;4888600;29;20029;-73
2022/04/19 04:39:52;;;;;;;;;;;;;;;6.61;100.00;97889.97;4904038;29;19952;-73
2022/04/19 04:42:25;;;;;;;;;;;;;;;6.76;100.00;97898.44;4904508;29;20254;-74
2022/04/19 04:44:57;;;;;;;;;;;;;;;6.88;100.00;97892.59;4887231;29;19952;-73
2022/04/19 04:50:11;;;;;;;;;;;;;;;7.09;100.00;97888.00;4903155;29;20348;-73
2022/04/19 04:52:38;;;;;;;;;;;;;;;7.19;100.00;97880.94;4901902;29;19955;-74
2022/04/19 04:55:07;;;;;;;;;;;;;;;7.26;100.00;97878.22;4912417;29;19967;-73
2022/04/19 04:57:36;;;;;;;;;;;;;;;7.31;100.00;97894.56;4868042;29;19984;-73
2022/04/19 05:00:04;;;;;;;;;;;;;;;7.30;100.00;97881.81;4876663;29;19955;-74
2022/04/19 05:02:49;;;;;;;;;;;;;;;7.37;100.00;97886.63;4885431;29;19949;-73
2022/04/19 05:05:16;;;;;;;;;;;;;;;7.49;100.00;97887.13;4903050;29;19957;-73
2022/04/19 05:07:44;;;;;;;;;;;;;;;7.66;100.00;97886.44;4904028;29;20153;-74
2022/04/19 05:10:12;;;;;;;;;;;;;;;8.01;100.00;97885.81;4886243;29;19956;-73
2022/04/19 05:12:40;;;;;;;;;;;;;;;8.35;100.00;97880.81;4896124;29;19957;-75
2022/04/19 05:15:08;;;;;;;;;;;;;;;8.58;100.00;97890.41;4886715;29;19977;-75
2022/04/19 05:17:38;;;;;;;;;;;;;;;9.16;100.00;97894.88;4877973;29;19953;-75
2022/04/19 05:20:06;;;;;;;;;;;;;;;9.71;100.00;97892.41;4887048;29;19951;-75
2022/04/19 05:22:36;;;;;;;;;;;;;;;10.41;100.00;97897.81;4885204;29;19948;-75
2022/04/19 05:25:04;;;;;;;;;;;;;;;11.20;100.00;97893.31;4884609;29;19967;-74
2022/04/19 05:27:32;;;;;;;;;;;;;;;12.21;100.00;97887.94;4887113;29;20346;-74
2022/04/19 05:30:00;;;;;;;;;;;;;;;13.28;98.93;97890.88;4886527;29;19980;-75
2022/04/19 05:32:28;;;;;;;;;;;;;;;14.20;92.18;97900.47;4902209;29;20423;-74
2022/04/19 05:34:55;;;;;;;;;;;;;;;15.24;83.81;97895.81;4885527;29;19965;-74
2022/04/19 05:37:23;;;;;;;;;;;;;;;15.85;79.38;97887.47;4894465;29;19954;-75
2022/04/19 05:39:51;;;;;;;;;;;;;;;16.54;74.96;97885.19;4881771;29;19956;-74
2022/04/19 05:42:18;;;;;;;;;;;;;;;17.34;68.19;97890.34;4878080;29;19979;-75
2022/04/19 05:44:48;;;;;;;;;;;;;;;18.32;64.10;97880.53;4884466;29;20362;-74
2022/04/19 05:47:16;;;;;;;;;;;;;;;18.74;61.39;97892.34;4900775;29;19950;-74
2022/04/19 05:49:45;;;;;;;;;;;;;;;19.12;55.34;97889.28;4885510;29;19952;-75
2022/04/19 05:52:13;;;;;;;;;;;;;;;19.51;55.38;97893.41;4884590;29;19958;-75
2022/04/19 05:54:42;;;;;;;;;;;;;;;19.81;51.42;97892.53;4885719;29;20256;-75
2022/04/19 05:57:10;;;;;;;;;;;;;;;20.73;48.57;97894.19;4901572;29;20324;-75
2022/04/19 05:59:37;;;;;;;;;;;;;;;21.10;46.69;97900.63;4885530;29;19960;-75
2022/04/19 06:04:54;;;;;;;;;;;;;;;21.53;40.61;97900.94;4900854;29;20336;-74
2022/04/19 06:07:32;;;;;;;;;;;;;;;22.40;40.42;97899.78;4886155;29;19968;-73
2022/04/19 06:10:08;;;;;;;;;;;;;;;22.01;41.00;97907.50;4886240;29;19950;-74
2022/04/19 06:12:36;;;;;;;;;;;;;;;21.26;42.06;97900.25;4902495;29;19960;-74
2022/04/19 06:15:05;;;;;;;;;;;;;;;20.35;44.48;97897.53;4893379;29;19969;-73
2022/04/19 06:17:35;;;;;;;;;;;;;;;19.75;47.11;97900.09;4874020;29;19948;-74
2022/04/19 06:20:15;;;;;;;;;;;;;;;19.14;49.71;97903.78;4867509;29;21275;-75
2022/04/19 06:22:44;;;;;;;;;;;;;;;18.49;52.24;97900.97;4903853;29;19958;-74
2022/04/19 06:25:15;;;;;;;;;;;;;;;18.26;54.28;97902.19;4887729;29;19956;-75
2022/04/19 06:27:43;;;;;;;;;;;;;;;17.62;56.27;97902.81;4894603;29;19970;-74
2022/04/19 06:30:12;;;;;;;;;;;;;;;16.86;61.69;97901.97;4903648;29;19946;-75
2022/04/19 06:32:42;;;;;;;;;;;;;;;16.61;62.00;97899.09;4889640;29;19956;-75
2022/04/19 06:35:10;;;;;;;;;;;;;;;16.11;65.94;97900.47;4888008;29;20389;-75
2022/04/19 06:37:37;;;;;;;;;;;;;;;16.21;64.40;97896.53;4894111;29;19956;-74
2022/04/19 06:40:09;;;;;;;;;;;;;;;15.94;66.97;97895.31;4882683;29;19954;-74
2022/04/19 06:42:37;;;;;;;;;;;;;;;15.89;67.58;97891.00;4875548;29;19952;-74
2022/04/19 06:45:14;;;;;;;;;;;;;;;15.84;68.65;97894.34;4895944;29;19965;-75
2022/04/19 06:47:54;;;;;;;;;;;;;;;15.41;72.85;97888.16;4875561;29;19955;-74
2022/04/19 06:50:23;;;;;;;;;;;;;;;15.56;72.39;97895.06;4872806;29;19957;-74
2022/04/19 06:52:53;;;;;;;;;;;;;;;15.56;71.84;97898.69;4883509;29;19945;-75
2022/04/19 06:55:39;;;;;;;;;;;;;;;15.32;65.62;97891.59;4895774;29;19973;-75
2022/04/19 06:58:06;;;;;;;;;;;;;;;15.55;63.06;97901.94;4884242;29;20343;-74
2022/04/19 07:00:34;;;;;;;;;;;;;;;15.66;60.11;97896.81;4884986;29;19951;-75
2022/04/19 07:03:02;;;;;;;;;;;;;;;15.45;59.78;97897.38;4883834;29;19957;-75
2022/04/19 07:05:48;;;;;;;;;;;;;;;15.28;62.96;97907.00;4901630;29;19946;-75
2022/04/19 07:08:17;;;;;;;;;;;;;;;14.85;62.84;97901.53;4885026;29;20253;-74
2022/04/19 07:10:44;;;;;;;;;;;;;;;14.74;60.91;97895.38;4884805;29;19959;-75
2022/04/19 07:13:43;;;;;;;;;;;;;;;14.51;61.92;97889.81;4885227;29;19964;-73
2022/04/19 07:16:15;;;;;;;;;;;;;;;14.79;61.92;97894.88;4899662;29;19972;-74
2022/04/19 07:18:42;;;;;;;;;;;;;;;14.45;61.45;97893.16;4884680;29;19949;-75
2022/04/19 07:26:44;;;;;;;;;;;;;;;14.44;63.99;97891.56;4881972;29;20336;-74
2022/04/19 07:29:18;;;;;;;;;;;;;;;14.50;65.42;97886.22;4890328;29;19954;-75
2022/04/19 07:31:48;;;;;;;;;;;;;;;14.59;62.65;97892.06;4883199;29;19979;-74
2022/04/19 07:34:41;;;;;;;;;;;;;;;14.64;61.68;97882.31;4872350;29;19959;-75
2022/04/19 07:37:09;;;;;;;;;;;;;;;14.65;58.63;97890.31;4872995;29;19953;-74
2022/04/19 07:39:36;;;;;;;;;;;;;;;14.85;57.22;97881.84;4871819;29;19959;-75
2022/04/19 07:42:04;;;;;;;;;;;;;;;14.75;52.14;97883.66;4895641;29;19980;-75
2022/04/19 07:44:32;;;;;;;;;;;;;;;14.84;53.78;97883.09;4887091;29;19946;-75
2022/04/19 07:46:59;;;;;;;;;;;;;;;14.75;52.49;97888.50;4904633;29;19948;-75
2022/04/19 07:49:26;;;;;;;;;;;;;;;14.87;50.26;97885.00;4887879;29;19946;-75
2022/04/19 07:51:54;;;;;;;;;;;;;;;14.89;47.40;97888.22;4888015;29;19958;-74
2022/04/19 07:54:22;;;;;;;;;;;;;;;14.69;48.38;97876.19;4903684;29;19956;-74
2022/04/19 07:56:50;;;;;;;;;;;;;;;14.57;50.44;97885.28;4903997;29;19969;-74
2022/04/19 07:59:18;;;;;;;;;;;;;;;14.86;52.94;97880.63;4903583;29;19968;-74
2022/04/19 08:01:46;;;;;;;;;;;;;;;14.66;50.96;97883.47;4886660;29;19953;-74
2022/04/19 08:04:13;;;;;;;;;;;;;;;14.92;50.60;97884.50;4902513;29;20246;-74
2022/04/19 08:06:40;;;;;;;;;;;;;;;14.92;48.01;97881.69;4887678;29;20270;-74
2022/04/19 08:09:08;;;;;;;;;;;;;;;15.14;52.60;97877.13;4902882;29;19983;-74
2022/04/19 08:11:38;;;;;;;;;;;;;;;15.06;49.50;97876.50;4888135;29;19946;-74
2022/04/19 08:14:07;;;;;;;;;;;;;;;15.04;51.37;97872.53;4904358;29;19962;-74
2022/04/19 08:16:34;;;;;;;;;;;;;;;15.15;46.31;97881.56;4888051;29;19975;-74
2022/04/19 08:19:04;;;;;;;;;;;;;;;15.23;47.52;97868.09;4903493;29;20251;-74
2022/04/19 08:21:31;;;;;;;;;;;;;;;15.37;44.61;97862.09;4887483;29;20268;-74
2022/04/19 08:23:59;;;;;;;;;;;;;;;15.53;43.66;97862.91;4902400;29;20331;-73
2022/04/19 08:26:27;;;;;;;;;;;;;;;15.47;41.86;97858.25;4888315;29;19947;-74
2022/04/19 08:28:56;;;;;;;;;;;;;;;15.52;40.85;97864.16;4885589;29;20303;-75
2022/04/19 08:31:31;;;;;;;;;;;;;;;15.45;42.11;97858.72;4870584;29;19945;-73
2022/04/19 08:33:59;;;;;;;;;;;;;;;15.32;44.52;97863.44;4881812;29;19961;-74
2022/04/19 08:36:26;;;;;;;;;;;;;;;15.39;46.83;97857.63;4869947;29;20270;-74
2022/04/19 08:38:56;;;;;;;;;;;;;;;15.53;51.30;97857.28;4869024;29;19952;-74
2022/04/19 08:41:27;;;;;;;;;;;;;;;15.71;46.59;97849.16;4868356;29;20346;-74
2022/04/19 08:43:55;;;;;;;;;;;;;;;15.75;48.75;97849.06;4868593;29;20289;-74
2022/04/19 08:46:22;;;;;;;;;;;;;;;15.70;55.30;97853.22;4885680;29;20333;-75
2022/04/19 08:48:49;;;;;;;;;;;;;;;15.87;51.03;97844.75;4867747;29;20243;-74
2022/04/19 08:51:19;;;;;;;;;;;;;;;15.76;48.22;97845.81;4885290;29;19967;-74
2022/04/19 08:59:26;;;;;;;;;;;;;;;15.52;50.24;97841.63;4903952;29;19947;-74
2022/04/19 09:01:53;;;;;;;;;;;;;;;15.71;50.60;97840.72;4903383;29;19947;-74
2022/04/19 09:04:22;;;;;;;;;;;;;;;15.89;50.98;97831.78;4903350;29;19958;-74
2022/04/19 09:06:56;;;;;;;;;;;;;;;15.81;47.17;97836.03;4897344;29;19960;-74
2022/04/19 09:09:24;;;;;;;;;;;;;;;15.87;45.69;97845.50;4890503;29;19947;-73
2022/04/19 09:11:52;;;;;;;;;;;;;;;16.08;54.24;97836.47;4895860;29;20357;-74
2022/04/19 09:14:22;;;;;;;;;;;;;;;16.01;55.88;97833.06;4903087;29;19949;-74
2022/04/19 09:17:01;;;;;;;;;;;;;;;16.13;50.65;97821.84;4902918;29;19966;-74
2022/04/19 09:19:29;;;;;;;;;;;;;;;16.29;51.67;97833.03;4903536;29;19951;-74
2022/04/19 09:21:57;;;;;;;;;;;;;;;16.17;47.85;97841.47;4903287;29;19958;-74
2022/04/19 09:24:25;;;;;;;;;;;;;;;16.25;46.65;97828.75;4899483;29;20381;-74
2022/04/19 09:26:52;;;;;;;;;;;;;;;16.31;48.84;97829.78;4898256;29;19956;-74
2022/04/19 09:29:27;;;;;;;;;;;;;;;16.00;51.65;97826.63;4896928;29;19961;-74
2022/04/19 09:31:57;;;;;;;;;;;;;;;16.27;48.63;97829.88;4887762;29;19950;-73
2022/04/19 09:34:28;;;;;;;;;;;;;;;16.22;49.19;97821.97;4884430;29;19955;-74
2022/04/19 09:37:08;;;;;;;;;;;;;;;16.39;55.90;97814.22;4892788;29;19993;-75
2022/04/19 09:39:36;;;;;;;;;;;;;;;16.26;51.25;97819.81;4903633;29;19954;-74
2022/04/19 09:42:04;;;;;;;;;;;;;;;16.27;53.13;97810.13;4902751;29;20336;-74
2022/04/19 09:44:51;;;;;;;;;;;;;;;16.08;49.75;97810.31;4884709;29;19951;-74
2022/04/19 09:47:20;;;;;;;;;;;;;;;16.06;54.66;97805.13;4902838;29;19955;-74
2022/04/19 09:49:48;;;;;;;;;;;;;;;16.32;49.47;97800.31;4901460;29;19952;-73
2022/04/19 09:52:24;;;;;;;;;;;;;;;16.40;54.70;97801.69;4900721;29;19958;-77
2022/04/19 09:55:03;;;;;;;;;;;;;;;16.48;51.98;97805.09;4900050;29;19957;-75
2022/04/19 09:57:32;;;;;;;;;;;;;;;16.31;43.95;97804.41;4890998;29;19973;-74
2022/04/19 10:00:00;;;;;;;;;;;;;;;16.43;45.88;97795.94;4897383;29;19953;-74
2022/04/19 10:08:21;;;;;;;;;;;;;;;16.49;49.05;97786.91;4900673;29;19986;-75
2022/04/19 10:10:49;;;;;;;;;;;;;;;16.51;47.48;97781.59;4902054;29;20257;-74
2022/04/19 10:13:18;;;;;;;;;;;;;;;16.62;47.29;97782.13;4901166;29;19955;-74
2022/04/19 10:15:45;;;;;;;;;;;;;;;16.51;45.02;97775.97;4902067;29;19954;-74
2022/04/19 10:18:12;;;;;;;;;;;;;;;16.62;45.48;97773.66;4901004;29;19973;-73
2022/04/19 10:20:42;;;;;;;;;;;;;;;16.66;44.51;97766.66;4883011;29;19955;-74
2022/04/19 10:23:10;;;;;;;;;;;;;;;16.90;46.65;97764.25;4889026;29;20331;-74
2022/04/19 10:25:45;;;;;;;;;;;;;;;16.99;46.63;97761.56;4891955;29;19951;-74
2022/04/19 10:28:25;;;;;;;;;;;;;;;16.85;45.75;97767.66;4900533;29;20375;-73
2022/04/19 10:30:53;;;;;;;;;;;;;;;16.98;47.46;97759.97;4900876;29;19954;-73
2022/04/19 10:33:42;;;;;;;;;;;;;;;16.95;50.97;97758.84;4901706;29;19953;-74
2022/04/19 10:36:22;;;;;;;;;;;;;;;16.83;51.18;97756.03;4901556;29;19944;-73
2022/04/19 10:39:11;;;;;;;;;;;;;;;16.76;49.14;97747.78;4900513;29;19956;-73
2022/04/19 10:41:48;;;;;;;;;;;;;;;16.51;51.05;97751.34;4901026;29;20273;-74
2022/04/19 10:44:23;;;;;;;;;;;;;;;16.64;53.69;97743.72;4900679;29;19948;-73
2022/04/19 10:47:12;;;;;;;;;;;;;;;16.62;55.00;97742.59;4901493;29;19958;-74
2022/04/19 10:49:58;;;;;;;;;;;;;;;16.66;53.22;97743.25;4896167;29;19953;-74
2022/04/19 10:52:42;;;;;;;;;;;;;;;16.51;51.71;97736.44;4901240;29;19950;-74
2022/04/19 10:55:21;;;;;;;;;;;;;;;16.62;51.70;97736.94;4900969;29;19956;-74
2022/04/19 10:58:09;;;;;;;;;;;;;;;16.35;55.92;97726.06;4897724;29;19968;-74
2022/04/19 11:00:51;;;;;;;;;;;;;;;16.61;55.45;97724.06;4899881;29;19958;-74
2022/04/19 11:03:46;;;;;;;;;;;;;;;16.62;54.05;97711.53;4900275;29;20373;-73
2022/04/19 11:06:36;;;;;;;;;;;;;;;16.58;53.06;97720.13;4899664;29;20342;-74
2022/04/19 11:09:07;;;;;;;;;;;;;;;16.60;54.84;97709.19;4898951;29;20338;-74
2022/04/19 11:11:54;;;;;;;;;;;;;;;16.78;51.75;97711.41;4900705;29;19947;-74
2022/04/19 11:14:21;;;;;;;;;;;;;;;16.86;51.84;97719.22;4900475;29;19956;-74
2022/04/19 11:16:51;;;;;;;;;;;;;;;16.95;52.96;97712.84;4899639;29;19966;-74
2022/04/19 11:19:23;;;;;;;;;;;;;;;17.12;50.88;97710.69;4899552;29;19950;-75
2022/04/19 11:21:55;;;;;;;;;;;;;;;17.23;49.68;97702.63;4891546;29;19956;-74
2022/04/19 11:24:41;;;;;;;;;;;;;;;17.19;55.71;97701.97;4900226;29;19961;-74
2022/04/19 11:27:08;;;;;;;;;;;;;;;17.27;55.43;97703.28;4893513;29;19954;-74
2022/04/19 11:29:51;;;;;;;;;;;;;;;16.81;50.51;97699.22;4899715;29;19946;-74
2022/04/19 11:32:27;;;;;;;;;;;;;;;16.93;61.28;97693.53;4901580;29;19952;-74
2022/04/19 11:34:58;;;;;;;;;;;;;;;16.98;53.09;97697.81;4893065;29;19951;-74
2022/04/19 11:37:26;;;;;;;;;;;;;;;17.12;56.25;97691.69;4897925;29;19969;-74
2022/04/19 11:48:26;;;;;;;;;;;;;;;16.86;51.08;97673.22;4897353;29;19949;-72
2022/04/19 11:51:04;;;;;;;;;;;;;;;16.40;49.09;97675.50;4900572;29;19952;-74
2022/04/19 11:53:31;;;;;;;;;;;;;;;16.38;55.60;97661.03;4900041;29;19951;-73
2022/04/19 11:55:59;;;;;;;;;;;;;;;16.37;58.66;97665.13;4898138;29;19966;-72
2022/04/19 11:58:26;;;;;;;;;;;;;;;16.38;51.93;97655.41;4900367;29;19972;-72
2022/04/19 12:00:58;;;;;;;;;;;;;;;16.60;57.78;97651.94;4899429;29;19951;-72
2022/04/19 12:03:27;;;;;;;;;;;;;;;16.40;51.26;97654.97;4897552;29;19956;-73
2022/04/19 12:06:04;;;;;;;;;;;;;;;16.30;50.25;97639.97;4895938;29;19949;-74
2022/04/19 12:08:33;;;;;;;;;;;;;;;16.27;50.42;97642.88;4899849;29;20354;-74
2022/04/19 12:11:03;;;;;;;;;;;;;;;16.57;48.14;97655.66;4897955;29;20268;-75
2022/04/19 12:13:30;;;;;;;;;;;;;;;16.73;59.76;97647.03;4888781;29;19948;-74
2022/04/19 12:16:00;;;;;;;;;;;;;;;16.63;51.03;97645.38;4899239;29;19948;-74
2022/04/19 12:18:30;;;;;;;;;;;;;;;16.68;51.58;97639.13;4902069;29;19964;-74
2022/04/19 12:20:58;;;;;;;;;;;;;;;16.83;50.72;97631.78;4904476;29;19957;-74
2022/04/19 12:23:25;;;;;;;;;;;;;;;16.72;51.25;97634.19;4902167;29;19979;-74
2022/04/19 12:26:03;;;;;;;;;;;;;;;16.70;51.13;97625.38;4902470;29;19949;-74
2022/04/19 12:28:34;;;;;;;;;;;;;;;16.86;53.71;97628.03;4901214;29;19949;-74
2022/04/19 12:31:02;;;;;;;;;;;;;;;17.00;52.41;97621.91;4903464;29;19956;-74
2022/04/19 12:33:29;;;;;;;;;;;;;;;17.02;54.96;97622.22;4903659;29;19956;-74
2022/04/19 12:35:58;;;;;;;;;;;;;;;17.07;52.29;97616.78;4903021;29;19949;-74
2022/04/19 12:38:29;;;;;;;;;;;;;;;17.08;53.31;97617.59;4903774;29;19963;-74
2022/04/19 12:40:57;;;;;;;;;;;;;;;17.14;54.35;97609.31;4903037;29;19956;-74
2022/04/19 12:43:45;;;;;;;;;;;;;;;17.22;54.05;97605.75;4902327;29;19949;-74
2022/04/19 12:46:14;;;;;;;;;;;;;;;17.16;49.79;97606.81;4902509;29;19951;-74
2022/04/19 12:48:52;;;;;;;;;;;;;;;17.15;50.92;97597.56;4903330;29;19948;-74
2022/04/19 12:51:25;;;;;;;;;;;;;;;16.98;54.20;97590.50;4888228;29;19949;-74
2022/04/19 12:54:05;;;;;;;;;;;;;;;16.90;52.25;97589.97;4902860;29;19960;-74
2022/04/19 12:56:33;;;;;;;;;;;;;;;17.05;54.34;97585.38;4885518;29;19960;-74
2022/04/19 12:59:00;;;;;;;;;;;;;;;17.15;54.32;97582.63;4884343;29;19977;-74
2022/04/19 13:01:27;;;;;;;;;;;;;;;17.13;55.50;97574.63;4889356;29;19966;-74
2022/04/19 13:03:56;;;;;;;;;;;;;;;17.05;51.67;97573.28;4902528;29;19957;-75
2022/04/19 13:12:19;;;;;;;;;;;;;;;17.00;52.45;97554.09;4892946;29;19955;-74
2022/04/19 13:14:49;;;;;;;;;;;;;;;17.13;52.06;97562.53;4901318;29;20215;-75
2022/04/19 13:17:20;;;;;;;;;;;;;;;17.23;52.20;97562.16;4891672;29;19949;-74
2022/04/19 13:19:47;;;;;;;;;;;;;;;17.23;51.08;97550.84;4906903;29;19953;-74
2022/04/19 13:22:15;;;;;;;;;;;;;;;17.19;49.56;97546.56;4886174;29;19963;-74
2022/04/19 13:24:42;;;;;;;;;;;;;;;17.22;52.19;97545.63;4910487;29;19976;-74
2022/04/19 13:27:11;;;;;;;;;;;;;;;17.29;56.75;97548.97;4905924;29;19951;-74
2022/04/19 13:29:39;;;;;;;;;;;;;;;17.31;56.38;97538.00;4907299;29;20344;-74
2022/04/19 13:32:07;;;;;;;;;;;;;;;17.35;55.33;97533.03;4901596;29;19949;-74
2022/04/19 13:34:35;;;;;;;;;;;;;;;17.35;52.24;97533.03;4902768;29;19961;-74
2022/04/19 13:37:03;;;;;;;;;;;;;;;17.47;51.96;97526.50;4903065;29;19957;-74
2022/04/19 13:39:30;;;;;;;;;;;;;;;17.27;53.04;97526.06;4899562;29;19962;-74
2022/04/19 13:41:58;;;;;;;;;;;;;;;17.18;52.53;97520.34;4903112;29;19953;-74
2022/04/19 13:44:25;;;;;;;;;;;;;;;17.18;57.65;97525.22;4901553;29;19949;-74
2022/04/19 13:46:56;;;;;;;;;;;;;;;17.26;53.57;97521.69;4902894;29;19951;-74
2022/04/19 13:49:25;;;;;;;;;;;;;;;17.23;51.10;97521.78;4901530;29;19948;-74
2022/04/19 13:51:54;;;;;;;;;;;;;;;17.11;59.04;97511.34;4902876;29;19949;-74
2022/04/19 13:54:21;;;;;;;;;;;;;;;17.33;51.68;97510.09;4902609;29;20029;-74
2022/04/19 13:56:49;;;;;;;;;;;;;;;17.36;52.41;97499.91;4902306;29;19974;-74
2022/04/19 13:59:17;;;;;;;;;;;;;;;17.39;52.10;97499.75;4901594;29;19963;-75
2022/04/19 14:01:45;;;;;;;;;;;;;;;17.31;61.08;97506.16;4901402;29;19954;-74
2022/04/19 14:04:12;;;;;;;;;;;;;;;17.23;51.20;97499.97;4897741;29;19957;-74
2022/04/19 14:06:41;;;;;;;;;;;;;;;17.28;55.41;97498.59;4888322;29;19953;-74
2022/04/19 14:09:08;;;;;;;;;;;;;;;17.32;55.47;97502.06;4901839;29;19952;-74
2022/04/19 14:11:36;;;;;;;;;;;;;;;17.29;53.47;97497.34;4902178;29;19952;-74
2022/04/19 14:14:04;;;;;;;;;;;;;;;17.41;59.32;97485.19;4900312;29;19965;-74
2022/04/19 14:16:31;;;;;;;;;;;;;;;17.45;53.78;97488.66;4902011;29;19958;-74
2022/04/19 14:18:59;;;;;;;;;;;;;;;17.52;56.00;97489.19;4901304;29;19969;-74
2022/04/19 14:21:26;;;;;;;;;;;;;;;17.71;54.99;97478.75;4887768;29;19947;-74
2022/04/19 14:23:53;;;;;;;;;;;;;;;17.68;49.63;97476.84;4900720;29;20247;-75
2022/04/19 14:26:21;;;;;;;;;;;;;;;17.68;50.76;97474.81;4893899;29;19949;-74
2022/04/19 14:34:20;;;;;;;;;;;;;;;17.58;51.76;97470.34;4889058;29;19948;-74
2022/04/19 14:36:47;;;;;;;;;;;;;;;17.46;52.47;97471.22;4897221;29;20221;-74
2022/04/19 14:39:14;;;;;;;;;;;;;;;17.38;50.81;97469.13;4902004;29;19971;-75
2022/04/19 14:41:42;;;;;;;;;;;;;;;17.43;50.47;97465.72;4901430;29;19948;-75
2022/04/19 14:44:09;;;;;;;;;;;;;;;17.46;51.94;97457.06;4901886;29;19954;-75
2022/04/19 14:46:37;;;;;;;;;;;;;;;17.37;51.77;97459.88;4899929;29;19957;-74
2022/04/19 14:49:04;;;;;;;;;;;;;;;17.39;52.88;97454.53;4894942;29;20335;-74
2022/04/19 14:54:17;;;;;;;;;;;;;;;17.32;53.79;97454.03;4902500;29;19950;-75
2022/04/19 14:56:44;;;;;;;;;;;;;;;17.37;53.17;97459.06;4901643;29;20335;-75
2022/04/19 14:59:12;;;;;;;;;;;;;;;17.43;51.83;97452.38;4895082;29;19964;-74
2022/04/19 15:01:39;;;;;;;;;;;;;;;17.47;51.66;97449.38;4901390;29;19952;-74
2022/04/19 15:04:07;;;;;;;;;;;;;;;17.53;54.39;97441.94;4901587;29;19956;-74
2022/04/19 15:06:34;;;;;;;;;;;;;;;17.51;53.45;97448.00;4901623;29;19948;-74
2022/04/19 15:09:01;;;;;;;;;;;;;;;17.38;55.35;97441.69;4902123;29;20270;-75
2022/04/19 15:11:30;;;;;;;;;;;;;;;17.45;53.61;97444.22;4901049;29;19953;-75
2022/04/19 15:13:57;;;;;;;;;;;;;;;17.30;51.84;97437.53;4901818;29;19956;-74
2022/04/19 15:16:25;;;;;;;;;;;;;;;17.36;54.53;97438.50;4901239;29;19947;-74
2022/04/19 15:18:52;;;;;;;;;;;;;;;17.30;53.08;97445.22;4900972;29;19979;-75
2022/04/19 15:21:20;;;;;;;;;;;;;;;17.25;54.45;97435.31;4901538;29;19958;-75
2022/04/19 15:23:48;;;;;;;;;;;;;;;17.20;53.50;97438.75;4900360;29;20330;-74
2022/04/19 15:26:15;;;;;;;;;;;;;;;17.27;54.16;97437.66;4901558;29;19953;-74
2022/04/19 15:28:42;;;;;;;;;;;;;;;17.27;55.16;97435.63;4901555;29;19948;-75
2022/04/19 15:31:12;;;;;;;;;;;;;;;17.25;55.99;97440.97;4901277;29;19957;-75
2022/04/19 15:33:39;;;;;;;;;;;;;;;17.23;55.14;97431.38;4900560;29;20034;-74
2022/04/19 15:36:06;;;;;;;;;;;;;;;17.25;54.58;97426.03;4902465;29;19959;-74
2022/04/19 15:38:34;;;;;;;;;;;;;;;17.28;54.06;97425.13;4900703;29;19968;-74
2022/04/19 15:41:01;;;;;;;;;;;;;;;17.28;56.25;97427.97;4901815;29;19953;-74
2022/04/19 15:43:29;;;;;;;;;;;;;;;17.31;56.50;97427.03;4901566;29;19955;-75
2022/04/19 15:45:56;;;;;;;;;;;;;;;17.31;55.47;97430.63;4902115;29;19954;-75
2022/04/19 15:48:27;;;;;;;;;;;;;;;17.21;56.30;97422.59;4885045;29;19949;-75
2022/04/19 15:50:55;;;;;;;;;;;;;;;17.32;56.46;97420.91;4901246;29;19950;-74
2022/04/19 15:53:23;;;;;;;;;;;;;;;17.33;58.99;97430.19;4901354;29;19951;-75
2022/04/19 15:55:51;;;;;;;;;;;;;;;17.49;59.02;97430.72;4900597;29;20293;-74
2022/04/19 15:58:18;;;;;;;;;;;;;;;17.42;57.54;97430.22;4903441;29;19955;-74
2022/04/19 16:00:46;;;;;;;;;;;;;;;17.36;56.83;97429.25;4903757;29;19946;-74
2022/04/19 16:03:13;;;;;;;;;;;;;;;17.33;57.39;97436.63;4904049;29;19947;-74
2022/04/19 16:05:41;;;;;;;;;;;;;;;17.37;57.42;97431.59;4904988;29;19957;-74
2022/04/19 16:08:10;;;;;;;;;;;;;;;17.39;58.19;97434.75;4903590;29;19969;-75
2022/04/19 16:10:38;;;;;;;;;;;;;;;17.35;59.09;97427.66;4903733;29;19955;-74
2022/04/19 16:13:06;;;;;;;;;;;;;;;17.29;59.91;97424.66;4904894;29;19949;-75
2022/04/19 16:15:33;;;;;;;;;;;;;;;17.36;62.77;97426.44;4904439;29;19956;-74
2022/04/19 16:23:33;;;;;;;;;;;;;;;17.39;63.07;97429.09;4903476;29;19956;-74
2022/04/19 16:26:02;;;;;;;;;;;;;;;17.33;63.22;97427.34;4905371;29;19953;-74
2022/04/19 16:28:30;;;;;;;;;;;;;;;17.18;63.03;97427.13;4903912;29;19951;-74
2022/04/19 16:30:59;;;;;;;;;;;;;;;17.13;63.88;97429.75;4903972;29;20368;-74
2022/04/19 16:33:27;;;;;;;;;;;;;;;17.02;65.63;97425.28;4904718;29;19948;-74
2022/04/19 16:35:54;;;;;;;;;;;;;;;16.84;70.72;97430.06;4905779;29;19957;-74
2022/04/19 16:38:22;;;;;;;;;;;;;;;16.76;67.34;97428.75;4903909;29;19947;-74
2022/04/19 16:40:49;;;;;;;;;;;;;;;16.68;68.34;97421.78;4903919;29;20401;-74
2022/04/19 16:43:17;;;;;;;;;;;;;;;16.65;67.34;97425.53;4903375;29;19952;-74
2022/04/19 16:45:45;;;;;;;;;;;;;;;16.52;69.80;97430.44;4903000;29;19963;-74
2022/04/19 16:48:13;;;;;;;;;;;;;;;16.54;72.43;97428.75;4904343;29;19948;-74
2022/04/19 16:50:40;;;;;;;;;;;;;;;16.39;70.86;97436.09;4904146;29;19959;-74
2022/04/19 16:53:08;;;;;;;;;;;;;;;16.40;70.68;97432.03;4904014;29;19947;-74
2022/04/19 16:55:37;;;;;;;;;;;;;;;16.34;73.27;97431.84;4904861;29;19978;-74
2022/04/19 16:58:07;;;;;;;;;;;;;;;16.27;72.38;97437.72;4903677;29;19956;-74
2022/04/19 17:00:34;;;;;;;;;;;;;;;16.23;73.33;97433.47;4903576;29;20272;-74
2022/04/19 17:05:48;;;;;;;;;;;;;;;16.19;74.57;97430.75;4903967;29;19948;-74
2022/04/19 17:08:16;;;;;;;;;;;;;;;16.09;74.55;97428.31;4903977;29;19974;-74
2022/04/19 17:10:43;;;;;;;;;;;;;;;16.08;76.95;97436.00;4903319;29;19957;-74
2022/04/19 17:13:11;;;;;;;;;;;;;;;16.03;76.08;97430.13;4904207;29;19978;-74
2022/04/19 17:15:39;;;;;;;;;;;;;;;15.98;76.32;97434.31;4906993;29;19946;-74
2022/04/19 17:18:07;;;;;;;;;;;;;;;15.96;77.00;97434.00;4917475;29;19960;-74
2022/04/19 17:20:35;;;;;;;;;;;;;;;15.95;77.75;97434.44;4904125;29;20358;-74
2022/04/19 17:23:02;;;;;;;;;;;;;;;15.82;78.38;97442.91;4901379;29;19949;-74
2022/04/19 17:25:30;;;;;;;;;;;;;;;15.66;79.74;97438.19;4902400;29;19955;-74
2022/04/19 17:27:57;;;;;;;;;;;;;;;15.60;81.24;97445.63;4896963;29;19957;-75
2022/04/19 17:30:25;;;;;;;;;;;;;;;15.65;81.16;97444.28;4891491;29;19950;-74
2022/04/19 17:32:52;;;;;;;;;;;;;;;15.55;82.80;97442.63;4900643;29;19949;-74
2022/04/19 17:35:20;;;;;;;;;;;;;;;15.54;82.54;97441.03;4900823;29;19955;-74
2022/04/19 17:37:47;;;;;;;;;;;;;;;15.51;85.20;97456.81;4899337;29;19951;-74
2022/04/19 17:40:15;;;;;;;;;;;;;;;15.34;85.99;97448.88;4905901;29;19965;-74
2022/04/19 17:42:45;;;;;;;;;;;;;;;15.26;85.95;97458.81;4908044;29;19952;-74
2022/04/19 17:45:13;;;;;;;;;;;;;;;15.18;88.51;97463.06;4903311;29;20239;-74
2022/04/19 17:47:41;;;;;;;;;;;;;;;15.12;88.71;97452.34;4908648;29;19963;-74
2022/04/19 17:58:40;;;;;;;;;;;;;;;15.02;93.06;97470.34;4899409;29;19958;-74
2022/04/19 18:01:09;;;;;;;;;;;;;;;15.00;93.00;97463.59;4903902;29;20381;-74
2022/04/19 18:03:37;;;;;;;;;;;;;;;14.94;94.12;97468.22;4906832;29;20364;-75
2022/04/19 18:06:07;;;;;;;;;;;;;;;14.88;94.91;97462.34;4902667;29;19949;-75
2022/04/19 18:08:35;;;;;;;;;;;;;;;14.75;95.91;97461.50;4906474;29;19975;-75